Latest Weather Observations for Hobart Airport

IDT60801

Issued at 9:02 pm EST Monday 24 April 2017 (issued every 30 minutes, with the page automatically refreshed every 10 minutes)

About weather observations | Map of weather stations | Latest weather observations for TAS | Other Formats
Station Details ID: 094008 Name: HOBART AIRPORT Lat: -42.83 Lon: 147.50 Height: 4.0 m
Data from the previous 72 hours. | See also: Recent months at Hobart Airport
Date/Time
EST
Temp
°C
App
Temp
°C
Dew
Point
°C
Rel
Hum
%
Delta-T
°C
Wind Press
QNH
hPa
Press
MSL
hPa
Rain since
9am
mm
Dir  Spd
km/h
Gust
km/h
Spd
kts
Gust
kts
24/08:30pm 14.8 15.6 12.6 87 1.2 CALM 0 0 0 0 1013.1 1013.1 0.0
24/08:00pm 15.2 14.9 12.7 85 1.4 NW 6 9 3 5 1013.2 1013.2 0.0
24/07:30pm 15.4 16.2 12.7 84 1.5 CALM 0 0 0 0 1013.4 1013.4 0.0
24/07:00pm 16.1 14.9 12.9 81 1.8 NW 11 11 6 6 1013.6 1013.6 0.0
24/06:30pm 16.3 15.4 12.7 79 2.0 NW 9 13 5 7 1013.4 1013.4 0.0
24/06:00pm 16.4 15.3 13.0 80 1.9 NW 11 13 6 7 1013.6 1013.6 0.0
24/05:30pm 16.5 16.0 13.9 84 1.5 N 9 13 5 7 1013.6 1013.6 0.0
24/05:00pm 17.6 16.5 13.0 74 2.6 N 11 13 6 7 1013.7 1013.7 0.0
24/04:30pm 17.8 16.6 12.8 72 2.8 NNW 11 15 6 8 1013.7 1013.7 0.0
24/04:00pm 18.2 16.6 12.8 71 3.0 N 13 19 7 10 1013.8 1013.8 0.0
24/03:30pm 18.5 16.8 12.6 68 3.3 N 13 20 7 11 1014.1 1014.1 0.0
24/03:00pm 18.7 16.9 12.2 66 3.6 NNE 13 19 7 10 1014.3 1014.3 0.0
24/02:30pm 18.8 17.6 12.9 68 3.3 NNE 11 19 6 10 1014.7 1014.7 0.0
24/02:00pm 18.0 17.2 13.0 72 2.8 NNE 9 13 5 7 1015.3 1015.3 0.0
24/01:30pm 17.9 17.0 12.7 71 2.9 NNE 9 11 5 6 1015.8 1015.8 0.0
24/01:00pm 17.3 17.0 12.6 74 2.6 NE 6 9 3 5 1016.4 1016.4 0.0
24/12:30pm 17.0 16.7 12.7 76 2.4 NNE 6 9 3 5 1017.1 1017.1 0.0
24/12:00pm 16.2 15.7 12.8 80 1.9 NNE 7 9 4 5 1017.8 1017.8 0.0
24/11:30am 15.6 15.1 12.5 82 1.7 NW 7 9 4 5 1018.3 1018.3 0.0
24/11:00am 15.2 14.3 12.5 84 1.5 WNW 9 13 5 7 1018.8 1018.8 0.0
24/10:30am 14.7 13.7 12.3 85 1.3 NW 9 13 5 7 1019.4 1019.4 0.0
24/10:00am 14.2 12.9 12.5 89 0.9 NW 11 13 6 7 1019.9 1019.9 0.0
24/09:30am 13.4 12.3 11.9 91 0.8 NW 9 11 5 6 1020.1 1020.1 0.0
24/09:00am 13.3 12.2 12.0 92 0.7 NW 9 11 5 6 1020.5 1020.5 1.0
24/08:30am 12.8 11.7 11.9 94 0.5 NW 9 9 5 5 1020.9 1020.9 1.0
24/08:00am 12.7 12.1 11.8 94 0.5 WNW 6 9 3 5 1021.2 1021.2 1.0
24/07:39am 12.4 11.7 11.5 94 0.5 W 6 7 3 4 1021.2 1021.2 1.0
24/07:30am 12.3 12.3 11.3 94 0.5 W 2 7 1 4 1021.3 1021.3 1.0
24/07:00am 12.3 12.8 11.5 95 0.4 CALM 0 0 0 0 1021.5 1021.5 1.0
24/06:30am 12.2 12.7 11.6 96 0.3 CALM 0 0 0 0 1021.7 1021.7 0.8
24/06:26am 12.3 12.8 11.5 95 0.4 CALM 0 0 0 0 1021.8 1021.8 0.8
24/06:00am 12.1 11.8 11.5 96 0.3 W 4 7 2 4 1021.9 1021.9 0.8
24/05:30am 12.1 11.8 11.3 95 0.4 WNW 4 9 2 5 1022.1 1022.1 0.8
24/05:00am 12.4 12.9 11.5 94 0.5 CALM 0 0 0 0 1022.2 1022.2 0.2
24/04:30am 12.6 13.0 11.3 92 0.7 CALM 0 0 0 0 1022.2 1022.2 0.0
24/04:00am 12.6 12.9 10.9 89 0.9 CALM 0 0 0 0 1022.4 1022.4 0.0
24/03:49am 12.5 12.9 11.2 92 0.7 CALM 0 0 0 0 1022.5 1022.5 0.0
24/03:30am 12.3 12.6 11.0 92 0.7 CALM 0 0 0 0 1022.6 1022.6 0.0
24/03:00am 12.5 12.7 10.4 87 1.1 CALM 0 0 0 0 1023.0 1023.0 0.0
24/02:30am 12.3 11.4 10.8 90 0.8 WSW 6 7 3 4 1023.3 1023.3 0.0
24/02:00am 12.6 12.4 10.3 86 1.2 E 2 7 1 4 1023.6 1023.6 0.0
24/01:30am 12.4 12.7 10.9 90 0.8 CALM 0 0 0 0 1023.9 1023.9 0.0
24/01:00am 12.4 12.6 10.7 89 0.9 CALM 0 0 0 0 1024.1 1024.1 0.0
24/12:30am 12.7 12.9 10.6 87 1.1 CALM 0 2 0 1 1024.3 1024.3 0.0
24/12:00am 12.5 11.5 10.4 87 1.1 W 6 7 3 4 1024.6 1024.6 0.0
 
Date/Time
EST
Temp
°C
App
Temp
°C
Dew
Point
°C
Rel
Hum
%
Delta-T
°C
Wind Press
QNH
hPa
Press
MSL
hPa
Rain since
9am
mm
Dir  Spd
km/h
Gust
km/h
Spd
kts
Gust
kts
23/11:30pm 12.5 11.4 10.8 89 0.9 WNW 7 7 4 4 1025.0 1025.0 0.0
23/11:00pm 12.3 11.4 10.8 90 0.8 N 6 7 3 4 1025.2 1025.2 0.0
23/10:30pm 12.4 12.3 10.7 89 0.9 NW 2 7 1 4 1025.5 1025.5 0.0
23/10:00pm 12.4 12.5 10.3 87 1.1 CALM 0 6 0 3 1025.8 1025.8 0.0
23/09:30pm 12.3 12.4 10.1 86 1.1 CALM 0 0 0 0 1025.7 1025.7 0.0
23/09:00pm 12.9 12.9 9.8 81 1.6 CALM 0 0 0 0 1025.8 1025.8 0.0
23/08:30pm 12.7 11.4 10.0 84 1.4 WSW 7 9 4 5 1025.8 1025.8 0.0
23/08:00pm 12.4 12.1 10.0 85 1.2 WNW 2 6 1 3 1025.5 1025.5 0.0
23/07:30pm 12.1 12.1 9.7 85 1.2 CALM 0 0 0 0 1025.7 1025.7 0.0
23/07:00pm 13.1 11.3 9.6 79 1.8 W 9 9 5 5 1025.5 1025.5 0.0
23/06:30pm 13.5 11.8 10.0 79 1.8 SW 9 11 5 6 1025.5 1025.5 0.0
23/06:00pm 13.9 12.2 9.8 76 2.1 SW 9 11 5 6 1025.5 1025.5 0.0
23/05:30pm 14.2 13.1 9.9 75 2.2 SSW 6 9 3 5 1025.3 1025.3 0.0
23/05:00pm 14.4 12.8 10.2 76 2.2 S 9 11 5 6 1025.3 1025.3 0.0
23/04:30pm 14.5 13.0 10.5 77 2.1 S 9 11 5 6 1025.4 1025.4 0.0
23/04:00pm 14.7 12.6 9.9 73 2.5 SSE 11 13 6 7 1025.3 1025.3 0.0
23/03:30pm 14.8 12.2 9.5 70 2.7 S 13 15 7 8 1025.2 1025.2 0.0
23/03:00pm 14.9 12.3 9.4 69 2.8 SSE 13 13 7 7 1025.0 1025.0 0.0
23/02:30pm 14.8 12.6 9.3 69 2.8 SSE 11 15 6 8 1025.2 1025.2 0.0
23/02:00pm 14.8 13.1 9.8 72 2.6 SSE 9 13 5 7 1025.2 1025.2 0.0
23/01:30pm 14.6 12.4 9.5 71 2.6 SSE 11 13 6 7 1025.4 1025.4 0.0
23/01:00pm 14.6 12.4 9.5 71 2.6 SSE 11 15 6 8 1025.5 1025.5 0.0
23/12:30pm 14.7 12.7 10.1 74 2.4 SSE 11 13 6 7 1025.7 1025.7 0.0
23/12:00pm 14.4 12.9 10.6 78 2.0 SE 9 13 5 7 1026.0 1026.0 0.0
23/11:30am 14.5 12.6 10.5 77 2.1 SE 11 13 6 7 1026.3 1026.3 0.0
23/11:00am 14.4 12.1 10.4 77 2.1 SSE 13 17 7 9 1026.5 1026.5 0.0
23/10:30am 14.3 14.1 10.5 78 2.0 N 2 13 1 7 1026.7 1026.7 0.0
23/10:00am 13.9 13.1 11.0 83 1.5 N 6 7 3 4 1026.6 1026.6 0.0
23/09:30am 14.2 13.1 10.6 79 1.9 E 7 11 4 6 1026.6 1026.6 0.0
23/09:00am 14.1 11.5 10.7 80 1.8 SSE 15 17 8 9 1026.6 1026.6 0.6
23/08:30am 14.1 11.4 10.4 78 1.9 SSE 15 17 8 9 1026.6 1026.6 0.6
23/08:00am 13.8 11.5 10.5 80 1.7 S 13 19 7 10 1026.5 1026.5 0.6
23/07:30am 13.6 11.6 10.3 80 1.7 S 11 13 6 7 1026.1 1026.1 0.6
23/07:00am 13.2 11.8 10.9 86 1.2 S 9 11 5 6 1025.8 1025.8 0.6
23/06:30am 13.1 12.3 11.6 91 0.8 S 7 9 4 5 1025.6 1025.6 0.6
23/06:00am 13.1 11.9 11.6 91 0.8 SSW 9 11 5 6 1025.6 1025.6 0.6
23/05:30am 12.9 11.8 11.8 93 0.6 S 9 13 5 7 1025.3 1025.3 0.6
23/05:00am 12.9 11.1 12.2 95 0.4 S 13 15 7 8 1025.0 1025.0 0.6
23/04:30am 13.0 11.3 12.3 95 0.4 S 13 17 7 9 1024.8 1024.8 0.4
23/04:00am 13.1 11.4 12.4 95 0.4 S 13 17 7 9 1024.7 1024.7 0.0
23/03:30am 13.3 10.8 12.2 93 0.6 S 17 24 9 13 1024.6 1024.6 0.0
23/03:00am 13.5 11.0 12.4 93 0.6 S 17 22 9 12 1024.6 1024.6 0.0
23/02:30am 13.6 11.5 12.3 92 0.7 S 15 17 8 9 1024.6 1024.6 0.0
23/02:00am 13.6 11.2 12.5 93 0.6 S 17 22 9 12 1024.7 1024.7 0.0
23/01:30am 13.6 11.2 12.7 94 0.5 S 17 24 9 13 1024.6 1024.6 0.0
23/01:00am 13.7 11.3 12.8 94 0.5 S 17 24 9 13 1024.5 1024.5 0.0
23/12:30am 14.0 11.7 12.9 93 0.6 S 17 22 9 12 1024.4 1024.4 0.0
23/12:00am 14.5 12.5 13.8 96 0.4 SSE 17 26 9 14 1024.4 1024.4 0.0
 
Date/Time
EST
Temp
°C
App
Temp
°C
Dew
Point
°C
Rel
Hum
%
Delta-T
°C
Wind Press
QNH
hPa
Press
MSL
hPa
Rain since
9am
mm
Dir  Spd
km/h
Gust
km/h
Spd
kts
Gust
kts
22/11:30pm 14.6 13.4 13.9 96 0.4 S 13 17 7 9 1024.5 1024.5 0.0
22/11:00pm 14.7 13.1 13.8 94 0.5 S 15 19 8 10 1024.5 1024.5 0.0
22/10:30pm 15.0 13.1 14.1 94 0.5 S 17 22 9 12 1024.4 1024.4 0.0
22/10:00pm 15.3 14.2 14.2 93 0.6 SSE 13 19 7 10 1024.3 1024.3 0.0
22/09:30pm 15.4 13.9 14.2 92 0.7 SSE 15 19 8 10 1024.2 1024.2 0.0
22/09:00pm 15.7 15.9 14.1 90 0.9 ESE 6 7 3 4 1024.1 1024.1 0.0
22/08:30pm 15.7 14.5 14.1 90 0.9 SSE 13 17 7 9 1023.9 1023.9 0.0
22/08:00pm 15.7 14.6 14.3 91 0.8 SE 13 15 7 8 1023.8 1023.8 0.0
22/07:30pm 15.7 15.0 14.3 91 0.8 SE 11 15 6 8 1023.6 1023.6 0.0
22/07:00pm 15.7 14.6 14.3 91 0.8 SSE 13 17 7 9 1023.4 1023.4 0.0
22/06:30pm 15.6 14.2 14.4 93 0.7 SSE 15 19 8 10 1023.3 1023.3 0.0
22/06:10pm 15.7 13.8 14.3 91 0.8 SSE 17 22 9 12 1023.0 1023.0 0.0
22/06:00pm 15.7 14.2 14.3 91 0.8 SSE 15 19 8 10 1022.9 1022.9 0.0
22/05:30pm 15.7 15.4 14.5 93 0.7 SSE 9 13 5 7 1022.9 1022.9 0.0
22/05:00pm 15.8 15.9 14.4 91 0.8 SSE 7 7 4 4 1022.5 1022.5 0.0
22/04:30pm 15.9 15.6 14.3 90 0.9 SSE 9 11 5 6 1022.4 1022.4 0.0
22/04:00pm 15.9 14.9 14.5 91 0.8 SE 13 17 7 9 1022.2 1022.2 0.0
22/03:55pm 15.9 14.9 14.5 91 0.8 SE 13 17 7 9 1022.2 1022.2 0.0
22/03:30pm 15.9 14.4 14.3 90 0.9 SSE 15 20 8 11 1022.1 1022.1 0.0
22/03:00pm 16.0 14.2 14.4 90 0.9 SSE 17 20 9 11 1022.0 1022.0 0.0
22/02:30pm 16.2 14.4 14.4 89 1.0 SE 17 19 9 10 1021.7 1021.7 0.0
22/02:00pm 16.3 14.4 14.2 87 1.2 SE 17 24 9 13 1021.7 1021.7 0.0
22/01:30pm 16.6 14.3 14.1 85 1.4 SSE 19 24 10 13 1021.6 1021.6 0.0
22/01:00pm 16.8 14.5 14.2 85 1.5 SE 19 24 10 13 1021.8 1021.8 0.0
22/12:30pm 16.9 14.6 14.1 83 1.6 SSE 19 24 10 13 1022.0 1022.0 0.0
22/12:00pm 17.2 14.6 13.7 80 2.0 SSE 20 28 11 15 1022.2 1022.2 0.0
22/11:30am 17.4 14.9 13.5 78 2.2 SSE 19 22 10 12 1022.3 1022.3 0.0
22/11:00am 18.6 16.2 12.7 68 3.3 SSW 17 24 9 13 1022.3 1022.3 0.0
22/10:30am 19.2 16.7 12.2 64 3.9 W 17 20 9 11 1022.1 1022.1 0.0
22/10:00am 18.4 16.9 13.1 71 3.0 NW 13 17 7 9 1021.9 1021.9 0.0
22/09:30am 17.9 17.0 13.7 76 2.4 NNW 11 13 6 7 1021.7 1021.7 0.0
22/09:00am 17.2 15.6 12.7 75 2.5 NNW 13 17 7 9 1021.7 1021.7 0.0
22/08:30am 16.7 15.9 13.9 83 1.6 NNW 11 13 6 7 1021.7 1021.7 0.0
22/08:00am 16.4 15.6 13.9 85 1.4 N 11 17 6 9 1021.6 1021.6 0.0
22/07:30am 16.0 14.9 13.1 83 1.6 WNW 11 15 6 8 1021.5 1021.5 0.0
22/07:00am 15.9 14.9 12.4 80 1.9 NNW 9 13 5 7 1021.1 1021.1 0.0
22/06:30am 15.8 14.7 12.1 78 2.0 NW 9 11 5 6 1021.2 1021.2 0.0
22/06:00am 14.8 12.9 11.8 82 1.6 NW 13 17 7 9 1021.1 1021.1 0.0
22/05:30am 13.5 12.1 11.0 85 1.3 WNW 9 13 5 7 1021.1 1021.1 0.0
22/05:00am 14.1 12.6 11.9 86 1.2 NNW 11 15 6 8 1020.9 1020.9 0.0
22/04:30am 13.5 11.5 11.4 87 1.1 NW 13 15 7 8 1020.7 1020.7 0.0
22/04:00am 14.3 13.6 11.9 85 1.3 NNE 7 9 4 5 1020.6 1020.6 0.0
22/03:30am 14.8 13.2 11.6 81 1.7 WNW 11 13 6 7 1020.6 1020.6 0.0
22/03:00am 14.6 13.5 12.0 84 1.4 WNW 9 11 5 6 1020.6 1020.6 0.0
22/02:30am 15.9 15.4 12.6 81 1.8 NNE 7 11 4 6 1020.8 1020.8 0.0
22/02:00am 14.1 12.8 12.6 91 0.8 NNW 11 15 6 8 1020.9 1020.9 0.0
22/01:30am 15.1 14.7 12.5 84 1.4 NNW 6 7 3 4 1020.9 1020.9 0.0
22/01:00am 14.7 15.5 12.7 88 1.1 CALM 0 0 0 0 1021.1 1021.1 0.0
22/12:30am 13.9 14.7 12.6 92 0.7 CALM 0 0 0 0 1021.3 1021.3 0.0
22/12:00am 14.7 14.3 13.1 90 0.9 N 7 9 4 5 1021.2 1021.2 0.0
 
Date/Time
EST
Temp
°C
App
Temp
°C
Dew
Point
°C
Rel
Hum
%
Delta-T
°C
Wind Press
QNH
hPa
Press
MSL
hPa
Rain since
9am
mm
Dir  Spd
km/h
Gust
km/h
Spd
kts
Gust
kts
21/11:30pm 13.7 13.2 12.6 93 0.6 NW 7 7 4 4 1021.3 1021.3 0.0
21/11:00pm 14.1 13.8 12.6 91 0.8 N 6 7 3 4 1021.5 1021.5 0.0
21/10:30pm 14.7 15.8 13.4 92 0.7 CALM 0 6 0 3 1021.8 1021.8 0.0
21/10:00pm 14.6 15.7 13.5 93 0.6 CALM 0 0 0 0 1021.9 1021.9 0.0
21/09:30pm 16.0 16.9 14.1 88 1.1 NNW 2 7 1 4 1021.9 1021.9 0.0

Other Formats:

Comma delimited format used in spreadsheet applications
http://www.bom.gov.au/fwo/IDT60801/IDT60801.94975.axf

JavaScript Object Notation format (JSON) in row-major order
http://www.bom.gov.au/fwo/IDT60801/IDT60801.94975.json